Time;durP1;ratioP1;P1;durP2;ratioP2;P2;SDS_P1;SDS_P2;PMS_P1;PMS_P2;Temp;Humidity;BMP_temperature;BMP_pressure;BME280_temperature;BME280_humidity;BME280_pressure;Samples;Min_cycle;Max_cycle;Signal;HPM_P1;HPM_P2
2022/12/08 00:01:15;;;;;;;2.77;2.57;;;;;;;-144.99;100.00;67352.69;5053877;28;20175;-75
2022/12/08 00:03:41;;;;;;;5.87;4.10;;;;;;;-144.99;100.00;67352.69;5053711;28;20213;-75
2022/12/08 00:11:44;;;;;;;7.73;7.03;;;;;;;-144.99;100.00;67352.69;5053771;28;20166;-75
2022/12/08 00:14:09;;;;;;;13.93;8.93;;;;;;;-144.99;100.00;67352.69;5052057;28;20191;-75
2022/12/08 00:16:35;;;;;;;8.30;4.83;;;;;;;-144.99;100.00;67352.69;5052301;28;20269;-75
2022/12/08 00:19:00;;;;;;;12.40;6.67;;;;;;;-144.99;100.00;67352.69;5053586;28;20175;-75
2022/12/08 00:21:25;;;;;;;9.83;6.37;;;;;;;-144.99;100.00;67352.69;5053416;28;20645;-75
2022/12/08 00:23:54;;;;;;;12.47;6.43;;;;;;;-144.99;100.00;67352.69;5053324;28;20183;-75
2022/12/08 00:26:19;;;;;;;6.20;5.63;;;;;;;-144.99;100.00;67352.69;5053447;28;20171;-75
2022/12/08 00:28:44;;;;;;;2.07;1.93;;;;;;;-144.99;100.00;67352.69;5053288;28;20634;-75
2022/12/08 00:31:10;;;;;;;5.27;4.87;;;;;;;-144.99;100.00;67352.69;5053386;28;20266;-75
2022/12/08 00:33:36;;;;;;;4.10;3.27;;;;;;;-144.99;100.00;67352.69;5053118;28;20635;-75
2022/12/08 00:36:10;;;;;;;5.70;5.30;;;;;;;-144.99;100.00;67352.69;5053396;28;20329;-75
2022/12/08 00:38:36;;;;;;;4.83;4.47;;;;;;;-144.99;100.00;67352.69;5052906;28;20409;-75
2022/12/08 00:41:02;;;;;;;6.23;5.73;;;;;;;-144.99;100.00;67352.69;5052687;28;20801;-75
2022/12/08 00:43:27;;;;;;;4.17;3.87;;;;;;;-144.99;100.00;67352.69;5052816;28;20171;-75
2022/12/08 00:45:52;;;;;;;3.77;3.47;;;;;;;-144.99;100.00;67352.69;5053244;28;20182;-75
2022/12/08 00:48:18;;;;;;;3.87;3.57;;;;;;;-144.99;100.00;67352.69;5051962;28;20573;-75
2022/12/08 00:50:43;;;;;;;12.60;6.63;;;;;;;-144.99;100.00;67352.69;5054088;28;20176;-75
2022/12/08 00:53:08;;;;;;;4.93;4.43;;;;;;;-144.99;100.00;67352.69;5057905;28;20449;-75
2022/12/08 00:55:33;;;;;;;8.73;6.23;;;;;;;-144.99;100.00;67352.69;5056828;28;20195;-75
2022/12/08 00:57:59;;;;;;;6.30;5.80;;;;;;;-144.99;100.00;67352.69;5052908;28;20262;-75
2022/12/08 01:00:24;;;;;;;8.67;5.73;;;;;;;-144.99;100.00;67352.69;5053180;28;20176;-75
2022/12/08 01:02:49;;;;;;;10.10;7.40;;;;;;;-144.99;100.00;67352.69;5052708;28;20751;-75
2022/12/08 01:05:15;;;;;;;2.47;2.27;;;;;;;-144.99;100.00;67352.69;5052035;28;20233;-75
2022/12/08 01:07:40;;;;;;;2.50;2.00;;;;;;;-144.99;100.00;67352.69;5053405;28;20175;-75
2022/12/08 01:10:06;;;;;;;1.80;1.70;;;;;;;-144.99;100.00;67352.69;5053048;28;20250;-75
2022/12/08 01:12:31;;;;;;;3.07;2.87;;;;;;;-144.99;100.00;67352.69;5052283;28;20254;-75
2022/12/08 01:14:56;;;;;;;5.07;3.83;;;;;;;-144.99;100.00;67352.69;5052486;28;20210;-74
2022/12/08 01:17:22;;;;;;;4.27;3.77;;;;;;;-144.99;100.00;67352.69;5052393;28;20181;-75
2022/12/08 01:19:47;;;;;;;7.30;5.33;;;;;;;-144.99;100.00;67352.69;5052461;28;20224;-75
2022/12/08 01:22:12;;;;;;;4.17;3.77;;;;;;;-144.99;100.00;67352.69;5052388;28;20168;-75
2022/12/08 01:24:38;;;;;;;3.53;3.27;;;;;;;-144.99;100.00;67352.69;5052196;28;20720;-75
2022/12/08 01:27:03;;;;;;;2.43;2.23;;;;;;;-144.99;100.00;67352.69;5052300;28;20167;-75
2022/12/08 01:29:28;;;;;;;6.60;5.53;;;;;;;-144.99;100.00;67352.69;5052242;28;20167;-75
2022/12/08 01:31:54;;;;;;;3.20;2.77;;;;;;;-144.99;100.00;67352.69;5052014;28;20175;-74
2022/12/08 01:34:19;;;;;;;3.47;3.23;;;;;;;-144.99;100.00;67352.69;5051849;28;20171;-75
2022/12/08 01:36:44;;;;;;;7.30;4.37;;;;;;;-144.99;100.00;67352.69;5052090;28;20213;-75
2022/12/08 01:39:14;;;;;;;2.23;2.13;;;;;;;-144.99;100.00;67352.69;5052086;28;20175;-75
2022/12/08 01:41:42;;;;;;;3.60;3.30;;;;;;;-144.99;100.00;67352.69;5051834;28;20214;-75
2022/12/08 01:44:08;;;;;;;2.10;1.90;;;;;;;-144.99;100.00;67352.69;5050527;28;20425;-75
2022/12/08 01:46:35;;;;;;;11.57;3.63;;;;;;;-144.99;100.00;67352.69;5050641;28;20797;-75
2022/12/08 01:49:10;;;;;;;12.17;2.93;;;;;;;-144.99;100.00;67352.69;5052293;28;20176;-74
2022/12/08 01:51:42;;;;;;;14.73;4.27;;;;;;;-144.99;100.00;67352.69;5049639;28;20412;-75
2022/12/08 01:54:09;;;;;;;3.60;3.30;;;;;;;-144.99;100.00;67352.69;5051984;28;20405;-75
2022/12/08 01:56:42;;;;;;;3.27;2.93;;;;;;;-144.99;100.00;67352.69;5051691;28;20423;-75
2022/12/08 01:59:08;;;;;;;2.30;2.20;;;;;;;-144.99;100.00;67352.69;5051632;28;20167;-75
2022/12/08 02:01:34;;;;;;;4.83;4.43;;;;;;;-144.99;100.00;67352.69;5051697;28;20417;-75
2022/12/08 02:04:01;;;;;;;7.03;2.47;;;;;;;-144.99;100.00;67352.69;5051479;28;20417;-75
2022/12/08 02:06:29;;;;;;;9.87;4.87;;;;;;;-144.99;100.00;67352.69;5051570;28;20175;-75
2022/12/08 02:08:56;;;;;;;4.00;3.70;;;;;;;-144.99;100.00;67352.69;5051492;28;20525;-75
2022/12/08 02:11:22;;;;;;;5.33;4.30;;;;;;;-144.99;100.00;67352.69;5051397;28;20420;-75
2022/12/08 02:13:51;;;;;;;2.97;2.77;;;;;;;-144.99;100.00;67352.69;5051208;28;20505;-75
2022/12/08 02:16:25;;;;;;;4.87;4.47;;;;;;;-144.99;100.00;67352.69;5051528;28;20207;-75
2022/12/08 02:18:57;;;;;;;5.90;4.67;;;;;;;-144.99;100.00;67352.69;5049987;28;20695;-75
2022/12/08 02:21:47;;;;;;;4.87;4.40;;;;;;;-144.99;100.00;67352.69;5051258;28;20414;-75
2022/12/08 02:24:12;;;;;;;4.27;3.97;;;;;;;-144.99;100.00;67352.69;5049701;28;20430;-75
2022/12/08 02:27:14;;;;;;;3.93;3.63;;;;;;;-144.99;100.00;67352.69;5051034;28;21016;-75
2022/12/08 02:30:05;;;;;;;5.10;4.63;;;;;;;-144.99;100.00;67352.69;5051013;28;20641;-75
2022/12/08 02:33:09;;;;;;;5.30;4.37;;;;;;;-144.99;100.00;67352.69;5051382;28;20421;-75
2022/12/08 02:35:49;;;;;;;3.03;2.83;;;;;;;-144.99;100.00;67352.69;5050990;28;20730;-75
2022/12/08 02:38:53;;;;;;;5.63;4.67;;;;;;;-144.99;100.00;67352.69;5050988;28;20257;-75
2022/12/08 02:41:38;;;;;;;3.47;2.40;;;;;;;-144.99;100.00;67352.69;5039490;28;21149;-74
2022/12/08 02:44:16;;;;;;;8.90;4.37;;;;;;;-144.99;100.00;67352.69;5050808;28;20171;-75
2022/12/08 02:46:55;;;;;;;3.23;2.87;;;;;;;-144.99;100.00;67352.69;5050877;28;20460;-75
2022/12/08 02:49:20;;;;;;;3.50;3.20;;;;;;;-144.99;100.00;67352.69;5050889;28;20674;-75
2022/12/08 02:51:46;;;;;;;4.50;4.10;;;;;;;-144.99;100.00;67352.69;5051326;28;20559;-75
2022/12/08 02:54:13;;;;;;;15.80;5.23;;;;;;;-144.99;100.00;67352.69;5049258;28;20175;-75
2022/12/08 02:57:29;;;;;;;2.67;2.47;;;;;;;-144.99;100.00;67352.69;5050464;28;20171;-75
2022/12/08 03:00:01;;;;;;;4.03;3.70;;;;;;;-144.99;100.00;67352.69;5050660;28;20535;-75
2022/12/08 03:02:58;;;;;;;6.50;5.77;;;;;;;-144.99;100.00;67352.69;5050512;28;20523;-75
2022/12/08 03:05:48;;;;;;;7.77;6.30;;;;;;;-144.99;100.00;67352.69;5050208;28;20936;-75
2022/12/08 03:08:23;;;;;;;4.20;3.80;;;;;;;-144.99;100.00;67352.69;5050636;28;20171;-76
2022/12/08 03:11:03;;;;;;;2.47;2.27;;;;;;;-144.99;100.00;67352.69;5050733;28;20167;-75
2022/12/08 03:13:40;;;;;;;2.77;2.57;;;;;;;-144.99;100.00;67352.69;5050361;28;20209;-75
2022/12/08 03:16:08;;;;;;;8.83;4.37;;;;;;;-144.99;100.00;67352.69;5050493;28;20211;-75
2022/12/08 03:18:38;;;;;;;4.13;2.33;;;;;;;-144.99;100.00;67352.69;5050716;28;20199;-75
2022/12/08 03:21:05;;;;;;;7.00;4.20;;;;;;;-144.99;100.00;67352.69;5050469;28;20179;-75
2022/12/08 03:23:32;;;;;;;5.50;4.90;;;;;;;-144.99;100.00;67352.69;5050395;28;20425;-75
2022/12/08 03:26:07;;;;;;;7.57;5.00;;;;;;;-144.99;100.00;67352.69;5050555;28;20514;-74
2022/12/08 03:28:33;;;;;;;5.07;4.57;;;;;;;-144.99;100.00;67352.69;5050456;28;20877;-75
2022/12/08 03:31:04;;;;;;;7.67;4.40;;;;;;;-144.99;100.00;67352.69;5050758;28;20183;-75
2022/12/08 03:33:35;;;;;;;10.83;5.07;;;;;;;-144.99;100.00;67352.69;5050348;28;20619;-75
2022/12/08 03:36:03;;;;;;;4.53;4.13;;;;;;;-144.99;100.00;67352.69;5050320;28;20646;-76
2022/12/08 03:38:37;;;;;;;7.20;6.50;;;;;;;-144.99;100.00;67352.69;5050498;28;20509;-75
2022/12/08 03:41:18;;;;;;;4.87;4.47;;;;;;;-144.99;100.00;67352.69;5049069;28;20476;-75
2022/12/08 03:44:03;;;;;;;8.20;5.40;;;;;;;-144.99;100.00;67352.69;5050260;28;20885;-75
2022/12/08 03:46:30;;;;;;;4.70;3.63;;;;;;;-144.99;100.00;67352.69;5051636;28;20438;-75
2022/12/08 03:48:56;;;;;;;5.47;5.00;;;;;;;-144.99;100.00;67352.69;5051380;28;20226;-75
2022/12/08 03:51:22;;;;;;;10.53;4.30;;;;;;;-144.99;100.00;67352.69;5050201;28;20658;-75
2022/12/08 03:53:48;;;;;;;3.60;3.40;;;;;;;-144.99;100.00;67352.69;5048690;28;20274;-75
2022/12/08 03:56:35;;;;;;;4.87;4.27;;;;;;;-144.99;100.00;67352.69;5050232;28;20322;-75
2022/12/08 03:59:01;;;;;;;5.87;5.23;;;;;;;-144.99;100.00;67352.69;5050475;28;20581;-75
2022/12/08 04:01:27;;;;;;;5.60;4.10;;;;;;;-144.99;100.00;67352.69;5050214;28;20180;-75
2022/12/08 04:03:52;;;;;;;7.03;4.93;;;;;;;-144.99;100.00;67352.69;5049994;28;20179;-74
2022/12/08 04:06:19;;;;;;;9.47;4.37;;;;;;;-144.99;100.00;67352.69;5050001;28;20690;-76
2022/12/08 04:08:44;;;;;;;19.73;5.77;;;;;;;-144.99;100.00;67352.69;5048645;28;20179;-75
2022/12/08 04:11:11;;;;;;;3.30;2.07;;;;;;;-144.99;100.00;67352.69;5050010;28;20627;-75
2022/12/08 04:13:37;;;;;;;4.80;4.40;;;;;;;-144.99;100.00;67352.69;5049839;28;20184;-75
2022/12/08 04:16:04;;;;;;;5.43;4.93;;;;;;;-144.99;100.00;67352.69;5053096;28;20670;-75
2022/12/08 04:18:30;;;;;;;4.60;4.20;;;;;;;-144.99;100.00;67352.69;5053491;28;20919;-75
2022/12/08 04:20:55;;;;;;;3.73;3.50;;;;;;;-144.99;100.00;67352.69;5052316;28;20380;-75
2022/12/08 04:23:21;;;;;;;2.67;2.17;;;;;;;-144.99;100.00;67352.69;5051906;28;20190;-75
2022/12/08 04:25:46;;;;;;;4.53;4.13;;;;;;;-144.99;100.00;67352.69;5053306;28;20273;-76
2022/12/08 04:28:12;;;;;;;3.13;2.93;;;;;;;-144.99;100.00;67352.69;5053250;28;20187;-75
2022/12/08 04:30:38;;;;;;;5.20;4.80;;;;;;;-144.99;100.00;67352.69;5053444;28;20167;-75
2022/12/08 04:33:03;;;;;;;9.53;5.27;;;;;;;-144.99;100.00;67352.69;5053202;28;20304;-75
2022/12/08 04:35:28;;;;;;;3.57;3.27;;;;;;;-144.99;100.00;67352.69;5053153;28;20252;-75
2022/12/08 04:37:54;;;;;;;4.27;3.93;;;;;;;-144.99;100.00;67352.69;5053084;28;20214;-75
2022/12/08 04:40:19;;;;;;;6.63;4.67;;;;;;;-144.99;100.00;67352.69;5053235;28;20312;-75
2022/12/08 04:42:44;;;;;;;7.10;3.87;;;;;;;-144.99;100.00;67352.69;5052988;28;20252;-75
2022/12/08 04:45:10;;;;;;;5.03;4.67;;;;;;;-144.99;100.00;67352.69;5053031;28;20186;-75
2022/12/08 04:47:36;;;;;;;8.67;4.03;;;;;;;-144.99;100.00;67352.69;5053182;28;20183;-75
2022/12/08 04:50:02;;;;;;;4.67;4.27;;;;;;;-144.99;100.00;67352.69;5053075;28;20179;-75
2022/12/08 04:52:27;;;;;;;5.90;5.43;;;;;;;-144.99;100.00;67352.69;5051561;28;20182;-75
2022/12/08 04:54:52;;;;;;;0.93;0.80;;;;;;;-144.99;100.00;67352.69;5052681;28;20209;-75
2022/12/08 04:57:17;;;;;;;7.30;4.27;;;;;;;-144.99;100.00;67352.69;5052851;28;20175;-75
2022/12/08 04:59:43;;;;;;;6.10;3.27;;;;;;;-144.99;100.00;67352.69;5051485;28;20234;-75
2022/12/08 05:02:08;;;;;;;3.87;3.57;;;;;;;-144.99;100.00;67352.69;5052758;28;20174;-75
2022/12/08 05:04:33;;;;;;;6.37;5.63;;;;;;;-144.99;100.00;67352.69;5052519;28;20171;-75
2022/12/08 05:06:59;;;;;;;6.73;6.13;;;;;;;-144.99;100.00;67352.69;5052481;28;20225;-75
2022/12/08 05:09:24;;;;;;;6.50;6.00;;;;;;;-144.99;100.00;67352.69;5052546;28;20175;-75
2022/12/08 05:11:49;;;;;;;9.47;7.87;;;;;;;-144.99;100.00;67352.69;5052505;28;20181;-75
2022/12/08 05:14:17;;;;;;;9.47;5.30;;;;;;;-144.99;100.00;67352.69;5052031;28;20187;-75
2022/12/08 05:16:45;;;;;;;6.40;5.90;;;;;;;-144.99;100.00;67352.69;5052395;28;20721;-75
2022/12/08 05:19:11;;;;;;;9.30;8.50;;;;;;;-144.99;100.00;67352.69;5052446;28;20290;-75
2022/12/08 05:21:36;;;;;;;6.10;5.60;;;;;;;-144.99;100.00;67352.69;5052382;28;20293;-75
2022/12/08 05:24:02;;;;;;;8.03;7.10;;;;;;;-144.99;100.00;67352.69;5052218;28;20909;-75
2022/12/08 05:26:27;;;;;;;15.43;8.03;;;;;;;-144.99;100.00;67352.69;5052166;28;20171;-75
2022/12/08 05:28:52;;;;;;;8.17;6.57;;;;;;;-144.99;100.00;67352.69;5052558;28;20635;-76
2022/12/08 05:31:18;;;;;;;9.60;8.60;;;;;;;-144.99;100.00;67352.69;5052350;28;20250;-75
2022/12/08 05:33:44;;;;;;;13.40;9.20;;;;;;;-144.99;100.00;67352.69;5051926;28;20572;-75
2022/12/08 05:36:12;;;;;;;9.37;7.37;;;;;;;-144.99;100.00;67352.69;5052035;28;20210;-76
2022/12/08 05:38:38;;;;;;;6.43;4.73;;;;;;;-144.99;100.00;67352.69;5052066;28;20179;-75
2022/12/08 05:41:08;;;;;;;8.70;6.53;;;;;;;-144.99;100.00;67352.69;5052277;28;20818;-75
2022/12/08 05:43:34;;;;;;;9.47;7.83;;;;;;;-144.99;100.00;67352.69;5051703;28;20179;-75
2022/12/08 05:45:59;;;;;;;14.87;6.83;;;;;;;-144.99;100.00;67352.69;5052199;28;20218;-75
2022/12/08 05:48:25;;;;;;;18.27;7.57;;;;;;;-144.99;100.00;67352.69;5051926;28;20646;-76
2022/12/08 05:50:51;;;;;;;2.87;2.67;;;;;;;-144.99;100.00;67352.69;5051905;28;20201;-75
2022/12/08 05:53:18;;;;;;;7.83;7.23;;;;;;;-144.99;100.00;67352.69;5051708;28;20175;-75
2022/12/08 05:55:44;;;;;;;11.27;8.47;;;;;;;-144.99;100.00;67352.69;5051507;28;20680;-76
2022/12/08 05:58:16;;;;;;;6.40;5.80;;;;;;;-144.99;100.00;67352.69;5051944;28;20254;-75
2022/12/08 06:00:42;;;;;;;14.20;8.90;;;;;;;-144.99;100.00;67352.69;5051656;28;20210;-75
2022/12/08 06:03:09;;;;;;;9.27;8.27;;;;;;;-144.99;100.00;67352.69;5051353;28;20171;-75
2022/12/08 06:05:34;;;;;;;9.50;8.70;;;;;;;-144.99;100.00;67352.69;5051424;28;20178;-75
2022/12/08 06:08:00;;;;;;;12.33;11.03;;;;;;;-144.99;100.00;67352.69;5051479;28;20418;-75
2022/12/08 06:10:26;;;;;;;3.70;3.40;;;;;;;-144.99;100.00;67352.69;5051469;28;20172;-75
2022/12/08 06:12:51;;;;;;;12.27;10.60;;;;;;;-144.99;100.00;67352.69;5051695;28;20528;-75
2022/12/08 06:15:17;;;;;;;11.40;10.37;;;;;;;-144.99;100.00;67352.69;5055972;28;20199;-75
2022/12/08 06:17:43;;;;;;;14.90;10.70;;;;;;;-144.99;100.00;67352.69;5054216;28;20647;-75
2022/12/08 06:20:09;;;;;;;9.57;8.30;;;;;;;-144.99;100.00;67352.69;5049937;28;20439;-75
2022/12/08 06:22:35;;;;;;;8.23;7.20;;;;;;;-144.99;100.00;67352.69;5051084;28;20178;-75
2022/12/08 06:25:01;;;;;;;12.33;8.43;;;;;;;-144.99;100.00;67352.69;5051529;28;20425;-75
2022/12/08 06:27:26;;;;;;;12.87;11.73;;;;;;;-144.99;100.00;67352.69;5051412;28;20191;-75
2022/12/08 06:29:51;;;;;;;20.17;12.00;;;;;;;-144.99;100.00;67352.69;5051181;28;20182;-75
2022/12/08 06:32:17;;;;;;;8.60;7.93;;;;;;;-144.99;100.00;67352.69;5051084;28;20534;-75
2022/12/08 06:34:43;;;;;;;14.80;5.17;;;;;;;-144.99;100.00;67352.69;5050829;28;20496;-75
2022/12/08 06:37:08;;;;;;;9.33;8.33;;;;;;;-144.99;100.00;67352.69;5050557;28;20186;-76
2022/12/08 06:39:33;;;;;;;7.73;7.17;;;;;;;-144.99;100.00;67352.69;5050845;28;20167;-75
2022/12/08 06:44:43;;;;;;;6.37;5.83;;;;;;;-144.99;100.00;67352.69;5050845;28;20292;-76
2022/12/08 06:47:08;;;;;;;15.30;6.03;;;;;;;-144.99;100.00;67352.69;5050856;28;20517;-75
2022/12/08 06:49:33;;;;;;;8.17;7.07;;;;;;;-144.99;100.00;67352.69;5050725;28;20179;-76
2022/12/08 06:51:58;;;;;;;4.37;3.57;;;;;;;-144.99;100.00;67352.69;5050872;28;20175;-75
2022/12/08 06:54:24;;;;;;;4.30;4.10;;;;;;;-144.99;100.00;67352.69;5050404;28;20232;-75
2022/12/08 06:56:49;;;;;;;5.60;5.20;;;;;;;-144.99;100.00;67352.69;5050629;28;20235;-75
2022/12/08 06:59:16;;;;;;;7.93;7.13;;;;;;;-144.99;100.00;67352.69;5050633;28;20237;-75
2022/12/08 07:01:41;;;;;;;9.53;8.13;;;;;;;-144.99;100.00;67352.69;5050704;28;20171;-76
2022/12/08 07:04:06;;;;;;;7.83;6.67;;;;;;;-144.99;100.00;67352.69;5050599;28;20175;-75
2022/12/08 07:06:32;;;;;;;2.50;2.40;;;;;;;-144.99;100.00;67352.69;5050373;28;20704;-75
2022/12/08 07:08:57;;;;;;;6.13;5.60;;;;;;;-144.99;100.00;67352.69;5051027;28;20254;-75
2022/12/08 07:11:22;;;;;;;7.90;7.30;;;;;;;-144.99;100.00;67352.69;5050457;28;20669;-75
2022/12/08 07:13:48;;;;;;;5.37;4.33;;;;;;;-144.99;100.00;67352.69;5050366;28;20183;-75
2022/12/08 07:16:13;;;;;;;4.73;4.37;;;;;;;-144.99;100.00;67352.69;5050419;28;20554;-75
2022/12/08 07:18:40;;;;;;;10.57;7.93;;;;;;;-144.99;100.00;67352.69;5050551;28;20220;-75
2022/12/08 07:21:08;;;;;;;4.57;4.17;;;;;;;-144.99;100.00;67352.69;5050523;28;20171;-75
2022/12/08 07:23:35;;;;;;;10.27;9.47;;;;;;;-144.99;100.00;67352.69;5050583;28;20180;-75
2022/12/08 07:26:01;;;;;;;11.30;10.20;;;;;;;-144.99;100.00;67352.69;5050470;28;20254;-75
2022/12/08 07:28:29;;;;;;;10.60;9.30;;;;;;;-144.99;100.00;67352.69;5050365;28;20381;-76
2022/12/08 07:30:55;;;;;;;4.10;3.80;;;;;;;-144.99;100.00;67352.69;5050415;28;20179;-75
2022/12/08 07:33:20;;;;;;;12.37;7.90;;;;;;;-144.99;100.00;67352.69;5050091;28;20171;-75
2022/12/08 07:35:53;;;;;;;9.67;8.77;;;;;;;-144.99;100.00;67352.69;5050117;28;20723;-75
2022/12/08 07:38:18;;;;;;;11.53;9.07;;;;;;;-144.99;100.00;67352.69;5050299;28;20164;-75
2022/12/08 07:40:44;;;;;;;5.00;4.60;;;;;;;-144.99;100.00;67352.69;5050308;28;20178;-75
2022/12/08 07:43:09;;;;;;;6.80;6.20;;;;;;;-144.99;100.00;67352.69;5050097;28;20183;-75
2022/12/08 07:45:34;;;;;;;4.07;3.87;;;;;;;-144.99;100.00;67352.69;5050323;28;20171;-75
2022/12/08 07:47:59;;;;;;;7.87;7.17;;;;;;;-144.99;100.00;67352.69;5050105;28;20179;-75
2022/12/08 07:50:25;;;;;;;3.03;2.83;;;;;;;-144.99;100.00;67352.69;5052749;28;20225;-75
2022/12/08 07:52:50;;;;;;;6.00;5.53;;;;;;;-144.99;100.00;67352.69;5053777;28;20186;-75
2022/12/08 07:55:15;;;;;;;5.90;5.30;;;;;;;-144.99;100.00;67352.69;5052630;28;20692;-75
2022/12/08 07:57:41;;;;;;;10.10;9.20;;;;;;;-144.99;100.00;67352.69;5053812;28;20171;-75
2022/12/08 08:00:06;;;;;;;4.03;3.83;;;;;;;-144.99;100.00;67352.69;5053908;28;20203;-75
2022/12/08 08:02:32;;;;;;;4.50;4.20;;;;;;;-144.99;100.00;67352.69;5053742;28;20585;-80
2022/12/08 08:04:57;;;;;;;1.97;1.87;;;;;;;-144.99;100.00;67352.69;5053528;28;20230;-80
2022/12/08 08:07:22;;;;;;;5.80;5.40;;;;;;;-144.99;100.00;67352.69;5053758;28;20542;-78
2022/12/08 08:09:48;;;;;;;3.47;3.17;;;;;;;-144.99;100.00;67352.69;5054088;28;20210;-80
2022/12/08 08:12:13;;;;;;;4.37;4.03;;;;;;;-144.99;100.00;67352.69;5053567;28;20179;-80
2022/12/08 08:14:38;;;;;;;1.03;0.93;;;;;;;-144.99;100.00;67352.69;5053369;28;20313;-80
2022/12/08 08:17:04;;;;;;;3.13;2.93;;;;;;;-144.99;100.00;67352.69;5052254;28;20179;-80
2022/12/08 08:19:29;;;;;;;3.90;3.60;;;;;;;-144.99;100.00;67352.69;5052232;28;20627;-80
2022/12/08 08:21:54;;;;;;;3.67;3.37;;;;;;;-144.99;100.00;67352.69;5053637;28;20750;-79
2022/12/08 08:24:21;;;;;;;5.07;4.63;;;;;;;-144.99;100.00;67352.69;5053689;28;20175;-80
2022/12/08 08:26:46;;;;;;;8.53;7.37;;;;;;;-144.99;100.00;67352.69;5052985;28;20256;-80
2022/12/08 08:29:11;;;;;;;9.73;8.87;;;;;;;-144.99;100.00;67352.69;5053409;28;20945;-80
2022/12/08 08:31:36;;;;;;;11.83;5.47;;;;;;;-144.99;100.00;67352.69;5053219;28;20199;-80
2022/12/08 08:34:04;;;;;;;8.10;7.40;;;;;;;-144.99;100.00;67352.69;5053047;28;20178;-81
2022/12/08 08:36:30;;;;;;;3.73;3.53;;;;;;;-144.99;100.00;67352.69;5053168;28;20207;-81
2022/12/08 08:38:56;;;;;;;8.90;6.87;;;;;;;-144.99;100.00;67352.69;5053221;28;20775;-82
2022/12/08 08:41:21;;;;;;;1.73;1.60;;;;;;;-144.99;100.00;67352.69;5053461;28;20771;-79
2022/12/08 08:43:46;;;;;;;7.37;6.67;;;;;;;-144.99;100.00;67352.69;5052900;28;20631;-80
2022/12/08 08:46:12;;;;;;;4.60;4.30;;;;;;;-144.99;100.00;67352.69;5053036;28;20314;-79
2022/12/08 08:48:37;;;;;;;6.33;5.73;;;;;;;-144.99;100.00;67352.69;5053079;28;20171;-79
2022/12/08 08:51:08;;;;;;;5.17;4.77;;;;;;;-144.99;100.00;67352.69;5053268;28;20533;-81
2022/12/08 08:53:34;;;;;;;8.90;8.10;;;;;;;-144.99;100.00;67352.69;5053029;28;20175;-81
2022/12/08 08:55:59;;;;;;;3.93;3.63;;;;;;;-144.99;100.00;67352.69;5052714;28;20736;-80
2022/12/08 08:58:25;;;;;;;5.47;4.67;;;;;;;-144.99;100.00;67352.69;5052836;28;20167;-80
2022/12/08 09:00:50;;;;;;;8.47;7.73;;;;;;;-144.99;100.00;67352.69;5057399;28;20247;-81
2022/12/08 09:03:17;;;;;;;2.10;2.00;;;;;;;-144.99;100.00;67352.69;5057812;28;20265;-80
2022/12/08 09:05:43;;;;;;;6.30;5.80;;;;;;;-144.99;100.00;67352.69;5057089;28;20179;-80
2022/12/08 09:08:08;;;;;;;7.47;6.83;;;;;;;-144.99;100.00;67352.69;5063123;28;20417;-80
2022/12/08 09:10:33;;;;;;;5.13;4.70;;;;;;;-144.99;100.00;67352.69;5064740;28;20174;-80
2022/12/08 09:12:59;;;;;;;5.03;4.63;;;;;;;-144.99;100.00;67352.69;5062745;28;20210;-81
2022/12/08 09:15:24;;;;;;;4.13;3.83;;;;;;;-144.99;100.00;67352.69;5061156;28;20198;-80
2022/12/08 09:17:49;;;;;;;9.27;8.43;;;;;;;-144.99;100.00;67352.69;5063638;28;20194;-80
2022/12/08 09:20:14;;;;;;;8.23;4.90;;;;;;;-144.99;100.00;67352.69;5064238;28;20185;-80
2022/12/08 09:22:40;;;;;;;2.67;2.40;;;;;;;-144.99;100.00;67352.69;5067534;28;20175;-80
2022/12/08 09:25:05;;;;;;;4.63;2.67;;;;;;;-144.99;100.00;67352.69;5075899;28;20174;-76
2022/12/08 09:27:30;;;;;;;7.53;6.93;;;;;;;-144.99;100.00;67352.69;5079491;28;20265;-78
2022/12/08 09:29:56;;;;;;;3.77;3.47;;;;;;;-144.99;100.00;67352.69;5069773;28;20182;-81
2022/12/08 09:32:21;;;;;;;7.43;4.43;;;;;;;-144.99;100.00;67352.69;5034538;28;20179;-80
2022/12/08 09:34:46;;;;;;;4.93;4.53;;;;;;;-144.99;100.00;67352.69;5052146;28;20171;-78
2022/12/08 09:37:12;;;;;;;4.60;3.47;;;;;;;-144.99;100.00;67352.69;5051751;28;20182;-79
2022/12/08 09:39:37;;;;;;;5.70;5.00;;;;;;;-144.99;100.00;67352.69;5051517;28;20257;-76
2022/12/08 09:42:08;;;;;;;3.40;3.13;;;;;;;-144.99;100.00;67352.69;5051767;28;20186;-81
2022/12/08 09:44:48;;;;;;;3.60;3.30;;;;;;;-144.99;100.00;67352.69;5051345;28;20190;-82
2022/12/08 09:47:35;;;;;;;6.13;5.60;;;;;;;-144.99;100.00;67352.69;5051447;28;20410;-82
2022/12/08 09:50:03;;;;;;;4.87;4.43;;;;;;;-144.99;100.00;67352.69;5051379;28;20174;-80
2022/12/08 09:52:37;;;;;;;5.57;3.90;;;;;;;-144.99;100.00;67352.69;5033383;28;20460;-77
2022/12/08 09:55:18;;;;;;;2.60;2.40;;;;;;;-144.99;100.00;67352.69;5051554;28;20591;-80
2022/12/08 09:57:45;;;;;;;5.33;4.83;;;;;;;-144.99;100.00;67352.69;5051210;28;20452;-80
2022/12/08 10:00:12;;;;;;;5.63;5.23;;;;;;;-144.99;100.00;67352.69;5051137;28;20428;-80
2022/12/08 10:02:37;;;;;;;6.90;6.23;;;;;;;-144.99;100.00;67352.69;5033248;28;20433;-82
2022/12/08 10:05:02;;;;;;;6.73;6.23;;;;;;;-144.99;100.00;67352.69;5051099;28;20175;-82
2022/12/08 10:07:44;;;;;;;7.33;6.63;;;;;;;-144.99;100.00;67352.69;5051008;28;20606;-81
2022/12/08 10:10:21;;;;;;;8.63;7.27;;;;;;;-144.99;100.00;67352.69;5050928;28;20171;-82
2022/12/08 10:12:56;;;;;;;6.23;5.43;;;;;;;-144.99;100.00;67352.69;5049836;28;20449;-82
2022/12/08 10:15:46;;;;;;;9.60;1.90;;;;;;;-144.99;100.00;67352.69;5052503;28;20195;-82
2022/12/08 10:18:22;;;;;;;0.83;0.83;;;;;;;-144.99;100.00;67352.69;5037590;28;20859;-81
2022/12/08 10:20:49;;;;;;;0.00;0.00;;;;;;;-144.99;100.00;67352.69;5050944;28;20183;-77
2022/12/08 10:23:22;;;;;;;1.53;1.43;;;;;;;-144.99;100.00;67352.69;5050570;28;20416;-76
2022/12/08 10:25:51;;;;;;;0.27;0.27;;;;;;;-144.99;100.00;67352.69;5033012;28;20459;-76
2022/12/08 10:28:16;;;;;;;1.23;1.13;;;;;;;-144.99;100.00;67352.69;5032873;28;20418;-79
2022/12/08 10:30:42;;;;;;;3.03;2.83;;;;;;;-144.99;100.00;67352.69;5032877;28;20198;-76
2022/12/08 10:33:15;;;;;;;3.50;1.30;;;;;;;-144.99;100.00;67352.69;5050465;28;20175;-80
2022/12/08 10:36:03;;;;;;;1.47;1.40;;;;;;;-144.99;100.00;67352.69;5050295;28;20723;-76
2022/12/08 10:38:34;;;;;;;3.90;3.60;;;;;;;-144.99;100.00;67352.69;5050669;28;20653;-80
2022/12/08 10:41:12;;;;;;;3.13;2.93;;;;;;;-144.99;100.00;67352.69;5050486;28;20406;-76
2022/12/08 10:43:53;;;;;;;4.80;4.03;;;;;;;-144.99;100.00;67352.69;5032748;28;21042;-76
2022/12/08 10:46:21;;;;;;;3.63;3.20;;;;;;;-144.99;100.00;67352.69;5050370;28;20563;-76
2022/12/08 10:49:08;;;;;;;7.00;6.03;;;;;;;-144.99;100.00;67352.69;5050337;28;20448;-77
2022/12/08 10:51:33;;;;;;;2.40;2.23;;;;;;;-144.99;100.00;67352.69;5050490;28;21160;-76
2022/12/08 10:53:59;;;;;;;1.53;1.43;;;;;;;-144.99;100.00;67352.69;5050090;28;20413;-78
2022/12/08 10:56:28;;;;;;;3.10;2.90;;;;;;;-144.99;100.00;67352.69;5050207;28;20684;-79
2022/12/08 10:59:15;;;;;;;0.83;0.37;;;;;;;-144.99;100.00;67352.69;5050435;28;20175;-79
2022/12/08 11:01:44;;;;;;;0.70;0.70;;;;;;;-144.99;100.00;67352.69;5050199;28;20409;-80
2022/12/08 11:04:14;;;;;;;3.03;2.47;;;;;;;-144.99;100.00;67352.69;5049859;28;20460;-80
2022/12/08 11:06:41;;;;;;;2.80;2.63;;;;;;;-144.99;100.00;67352.69;5032724;28;20421;-79
2022/12/08 11:09:15;;;;;;;1.17;0.63;;;;;;;-144.99;100.00;67352.69;5050157;28;20409;-80
2022/12/08 11:11:49;;;;;;;3.20;3.00;;;;;;;-144.99;100.00;67352.69;5050382;28;20425;-79
2022/12/08 11:14:44;;;;;;;4.37;4.07;;;;;;;-144.99;100.00;67352.69;5049395;28;20467;-80
2022/12/08 11:17:22;;;;;;;5.30;4.90;;;;;;;-144.99;100.00;67352.69;5036555;28;21063;-79
2022/12/08 11:20:05;;;;;;;4.40;3.80;;;;;;;-144.99;100.00;67352.69;5050066;28;20187;-80
2022/12/08 11:22:32;;;;;;;4.40;4.00;;;;;;;-144.99;100.00;67352.69;5050031;28;20436;-79